Time;durP1;ratioP1;P1;durP2;ratioP2;P2;SDS_P1;SDS_P2;PMS_P1;PMS_P2;Temp;Humidity;BMP_temperature;BMP_pressure;BME280_temperature;BME280_humidity;BME280_pressure;Samples;Min_cycle;Max_cycle;Signal;HPM_P1;HPM_P2
2023/05/08 00:01:51;;;;;;;11.85;5.18;;;10.20;99.90;;;;;;5008361;28;20026;-44
2023/05/08 00:04:19;;;;;;;11.48;5.55;;;10.20;99.90;;;;;;5006494;28;20042;-53
2023/05/08 00:06:45;;;;;;;12.02;5.28;;;10.20;99.90;;;;;;5014161;28;20028;-55
2023/05/08 00:09:11;;;;;;;13.90;6.03;;;10.20;99.90;;;;;;5013955;28;20047;-51
2023/05/08 00:11:37;;;;;;;13.20;5.63;;;10.10;99.90;;;;;;5013895;28;20026;-53
2023/05/08 00:14:03;;;;;;;15.48;5.78;;;10.10;99.90;;;;;;5004454;28;20072;-52
2023/05/08 00:16:29;;;;;;;14.57;6.53;;;10.10;99.90;;;;;;5008650;28;20033;-55
2023/05/08 00:18:54;;;;;;;18.27;6.20;;;10.10;99.90;;;;;;5013955;28;20472;-48
2023/05/08 00:21:20;;;;;;;11.95;5.93;;;10.10;99.90;;;;;;5013982;28;20026;-60
2023/05/08 00:23:45;;;;;;;12.70;5.90;;;10.10;99.90;;;;;;5013956;28;20026;-54
2023/05/08 00:26:11;;;;;;;20.20;6.07;;;10.10;99.90;;;;;;5013740;28;20045;-59
2023/05/08 00:28:37;;;;;;;12.48;5.82;;;10.00;99.90;;;;;;5013643;28;20053;-57
2023/05/08 00:31:02;;;;;;;10.30;5.25;;;10.00;99.90;;;;;;5013754;28;20072;-41
2023/05/08 00:33:28;;;;;;;12.70;5.38;;;10.00;99.90;;;;;;5013429;28;20029;-42
2023/05/08 00:36:00;;;;;;;13.57;7.03;;;10.00;99.90;;;;;;5013667;28;20131;-41
2023/05/08 00:38:28;;;;;;;15.15;5.80;;;10.00;99.90;;;;;;5013524;28;20046;-58
2023/05/08 00:40:54;;;;;;;14.07;5.43;;;9.90;99.90;;;;;;5013573;28;20060;-47
2023/05/08 00:43:24;;;;;;;12.85;5.25;;;9.90;99.90;;;;;;5013443;28;20026;-54
2023/05/08 00:45:50;;;;;;;14.05;5.35;;;9.90;99.90;;;;;;5013106;28;20033;-43
2023/05/08 00:48:16;;;;;;;16.42;6.50;;;9.80;99.90;;;;;;5013370;28;20026;-50
2023/05/08 00:50:42;;;;;;;14.65;6.18;;;9.80;99.90;;;;;;5012269;28;20068;-57
2023/05/08 00:53:08;;;;;;;15.70;6.32;;;9.80;99.90;;;;;;5013239;28;20058;-55
2023/05/08 00:55:33;;;;;;;18.40;6.57;;;9.80;99.90;;;;;;5028574;28;20033;-49
2023/05/08 00:58:00;;;;;;;15.50;6.70;;;9.80;99.90;;;;;;5013270;28;20029;-56
2023/05/08 01:00:25;;;;;;;19.55;7.10;;;9.80;99.90;;;;;;5013266;28;20080;-55
2023/05/08 01:02:51;;;;;;;15.20;7.28;;;9.80;99.90;;;;;;5013071;28;20037;-54
2023/05/08 01:05:17;;;;;;;17.05;6.60;;;9.80;99.90;;;;;;5013347;28;20045;-48
2023/05/08 01:07:43;;;;;;;19.15;6.82;;;9.80;99.90;;;;;;5013161;28;20400;-42
2023/05/08 01:10:09;;;;;;;18.55;6.82;;;9.80;99.90;;;;;;5012708;28;20393;-50
2023/05/08 01:12:53;;;;;;;21.98;7.15;;;9.80;99.90;;;;;;5012095;28;20036;-64
2023/05/08 01:15:51;;;;;;;15.70;6.15;;;9.80;99.90;;;;;;5012823;28;20050;-47
2023/05/08 01:18:26;;;;;;;21.98;7.38;;;9.80;99.90;;;;;;5005835;28;20465;-57
2023/05/08 01:21:07;;;;;;;21.05;6.90;;;9.80;99.90;;;;;;5011639;28;20029;-43
2023/05/08 01:24:14;;;;;;;18.50;6.32;;;9.70;99.90;;;;;;5012654;28;20022;-49
2023/05/08 01:27:15;;;;;;;20.25;5.95;;;9.70;99.90;;;;;;4974092;28;20084;-51
2023/05/08 01:29:58;;;;;;;13.10;4.97;;;9.70;99.90;;;;;;5012445;28;20053;-50
2023/05/08 01:32:31;;;;;;;18.70;5.97;;;9.70;99.90;;;;;;5012624;28;20032;-54
2023/05/08 01:35:06;;;;;;;18.05;6.97;;;9.60;99.90;;;;;;5012709;28;20030;-51
2023/05/08 01:37:50;;;;;;;21.73;6.50;;;9.60;99.90;;;;;;5012464;28;20060;-48
2023/05/08 01:40:44;;;;;;;18.20;6.32;;;9.50;99.90;;;;;;5012362;28;20188;-55
2023/05/08 01:43:30;;;;;;;18.75;5.82;;;9.50;99.90;;;;;;5012570;28;20413;-56
2023/05/08 01:46:00;;;;;;;19.95;6.32;;;9.40;99.90;;;;;;5012221;28;20113;-58
2023/05/08 01:48:35;;;;;;;16.30;6.75;;;9.40;99.90;;;;;;5012399;28;20061;-56
2023/05/08 01:51:07;;;;;;;14.43;5.93;;;9.40;99.90;;;;;;5012355;28;20037;-55
2023/05/08 01:53:41;;;;;;;22.92;7.60;;;9.40;99.90;;;;;;5012301;28;20049;-56
2023/05/08 01:56:11;;;;;;;20.63;7.53;;;9.30;99.90;;;;;;5012195;28;20033;-49
2023/05/08 01:58:37;;;;;;;20.73;7.43;;;9.30;99.90;;;;;;5012290;28;20040;-59
2023/05/08 02:01:03;;;;;;;17.10;6.55;;;9.30;99.90;;;;;;5012051;28;20152;-56
2023/05/08 02:03:32;;;;;;;20.73;7.32;;;9.30;99.90;;;;;;5012110;28;20055;-47
2023/05/08 02:06:00;;;;;;;17.43;8.00;;;9.30;99.90;;;;;;5011856;28;20038;-57
2023/05/08 02:08:29;;;;;;;20.52;8.23;;;9.30;99.90;;;;;;5011550;28;20036;-60
2023/05/08 02:10:58;;;;;;;25.10;8.43;;;9.40;99.90;;;;;;5011938;28;20033;-56
2023/05/08 02:13:26;;;;;;;17.38;7.93;;;9.40;99.90;;;;;;5011825;28;20018;-57
2023/05/08 02:15:55;;;;;;;27.83;7.78;;;9.50;99.90;;;;;;5012065;28;20038;-57
2023/05/08 02:18:22;;;;;;;26.33;7.15;;;9.50;99.90;;;;;;5011894;28;20026;-61
2023/05/08 02:20:53;;;;;;;22.95;7.55;;;9.50;99.90;;;;;;5011906;28;20080;-55
2023/05/08 02:23:21;;;;;;;25.83;7.68;;;9.50;99.90;;;;;;5011730;28;20033;-50
2023/05/08 02:25:49;;;;;;;21.13;7.15;;;9.50;99.90;;;;;;5011911;28;20036;-43
2023/05/08 02:28:16;;;;;;;28.60;8.23;;;9.50;99.90;;;;;;5010515;28;20023;-51
2023/05/08 02:30:43;;;;;;;20.85;7.50;;;9.50;99.90;;;;;;4994896;28;20113;-47
2023/05/08 02:33:11;;;;;;;22.23;8.10;;;9.60;99.90;;;;;;4992111;28;20125;-47
2023/05/08 02:35:39;;;;;;;16.42;6.80;;;9.50;99.90;;;;;;4991972;28;20031;-43
2023/05/08 02:38:09;;;;;;;23.42;6.88;;;9.50;99.90;;;;;;4991768;28;20477;-46
2023/05/08 02:40:38;;;;;;;14.45;6.43;;;9.50;99.90;;;;;;4992043;28;20022;-44
2023/05/08 02:43:04;;;;;;;14.18;6.50;;;9.50;99.90;;;;;;4992011;28;20058;-48
2023/05/08 02:45:56;;;;;;;9.60;5.80;;;9.50;99.90;;;;;;4991891;28;20058;-43
2023/05/08 02:48:32;;;;;;;17.92;7.55;;;9.50;99.90;;;;;;4986251;28;20072;-45
2023/05/08 02:51:17;;;;;;;12.75;6.25;;;9.50;99.90;;;;;;5011334;28;20056;-46
2023/05/08 02:53:54;;;;;;;10.70;5.65;;;9.40;99.90;;;;;;5011983;28;20021;-45
2023/05/08 02:56:36;;;;;;;9.10;5.30;;;9.40;99.90;;;;;;5011423;28;20099;-44
2023/05/08 02:59:19;;;;;;;12.85;5.13;;;9.40;99.90;;;;;;5011276;28;20021;-56
2023/05/08 03:02:03;;;;;;;10.63;5.55;;;9.40;99.90;;;;;;5010918;28;20026;-43
2023/05/08 03:04:33;;;;;;;13.90;6.30;;;9.40;99.90;;;;;;5011161;28;20214;-43
2023/05/08 03:07:00;;;;;;;15.10;5.80;;;9.40;99.90;;;;;;5011127;28;20053;-43
2023/05/08 03:09:41;;;;;;;13.55;5.55;;;9.40;99.90;;;;;;5010973;28;20045;-45
2023/05/08 03:12:13;;;;;;;15.55;5.60;;;9.40;99.90;;;;;;4980744;28;20033;-42
2023/05/08 03:14:52;;;;;;;17.80;5.35;;;9.40;99.90;;;;;;5010792;28;20381;-42
2023/05/08 03:17:18;;;;;;;19.60;5.97;;;9.30;99.90;;;;;;5010752;28;20109;-42
2023/05/08 03:19:48;;;;;;;16.85;5.45;;;9.30;99.90;;;;;;5011376;28;20037;-54
2023/05/08 03:22:15;;;;;;;8.90;4.78;;;9.30;99.90;;;;;;5010780;28;20025;-56
2023/05/08 03:24:43;;;;;;;18.23;4.80;;;9.30;99.90;;;;;;5011155;28;20106;-45
2023/05/08 03:27:09;;;;;;;10.55;4.68;;;9.40;99.90;;;;;;5010632;28;20061;-48
2023/05/08 03:29:37;;;;;;;7.10;4.35;;;9.40;99.90;;;;;;5010801;28;20113;-44
2023/05/08 03:32:03;;;;;;;10.73;4.50;;;9.30;99.90;;;;;;5010947;28;20022;-48
2023/05/08 03:34:30;;;;;;;10.10;4.75;;;9.30;99.90;;;;;;5010756;28;20069;-42
2023/05/08 03:36:55;;;;;;;13.68;4.43;;;9.30;99.90;;;;;;5014767;28;20156;-45
2023/05/08 03:39:23;;;;;;;12.13;4.68;;;9.20;99.90;;;;;;5014440;28;20121;-41
2023/05/08 03:41:49;;;;;;;11.85;4.45;;;9.10;99.90;;;;;;5014808;28;20034;-55
2023/05/08 03:44:16;;;;;;;10.65;4.40;;;9.00;99.90;;;;;;5014602;28;20026;-51
2023/05/08 03:46:42;;;;;;;20.35;6.15;;;9.10;99.90;;;;;;5014626;28;20045;-50
2023/05/08 03:49:09;;;;;;;13.35;4.30;;;9.10;99.90;;;;;;5014378;28;20489;-55
2023/05/08 03:51:40;;;;;;;33.47;5.45;;;9.10;99.90;;;;;;5014488;28;20021;-52
2023/05/08 03:54:05;;;;;;;14.00;5.13;;;9.10;99.90;;;;;;5014352;28;20042;-52
2023/05/08 03:56:32;;;;;;;12.25;5.53;;;9.20;99.90;;;;;;5014214;28;20018;-55
2023/05/08 03:59:25;;;;;;;14.45;5.70;;;9.30;99.90;;;;;;5014563;28;20029;-49
2023/05/08 04:01:58;;;;;;;52.83;6.57;;;9.40;99.90;;;;;;5014164;28;20481;-48
2023/05/08 04:04:32;;;;;;;27.05;5.63;;;9.50;99.90;;;;;;5014363;28;20033;-46
2023/05/08 04:07:14;;;;;;;27.65;6.20;;;9.60;99.90;;;;;;5014277;28;20050;-42
2023/05/08 04:10:04;;;;;;;28.10;5.97;;;9.60;99.90;;;;;;5014069;28;20038;-43
2023/05/08 04:12:42;;;;;;;10.95;5.30;;;9.70;99.90;;;;;;5014136;28;20045;-51
2023/05/08 04:15:20;;;;;;;30.13;6.20;;;9.80;99.90;;;;;;5014204;28;20235;-64
2023/05/08 04:18:11;;;;;;;14.30;5.68;;;9.80;99.90;;;;;;5014208;28;20026;-48
2023/05/08 04:20:40;;;;;;;25.60;5.88;;;9.90;99.90;;;;;;5013793;28;20587;-47
2023/05/08 04:23:07;;;;;;;22.17;5.90;;;9.90;99.90;;;;;;5014024;28;20062;-54
2023/05/08 04:25:36;;;;;;;16.33;5.57;;;10.00;99.90;;;;;;5013800;28;20485;-58
2023/05/08 04:28:02;;;;;;;18.97;6.13;;;10.00;99.90;;;;;;5013963;28;20071;-46
2023/05/08 04:30:29;;;;;;;35.88;7.15;;;10.00;99.90;;;;;;5013661;28;20291;-56
2023/05/08 04:32:55;;;;;;;25.33;7.13;;;10.10;99.90;;;;;;5013930;28;20345;-56
2023/05/08 04:35:21;;;;;;;32.25;7.22;;;10.10;99.90;;;;;;5013755;28;20381;-48
2023/05/08 04:37:47;;;;;;;19.05;6.55;;;10.20;99.90;;;;;;5013931;28;20025;-52
2023/05/08 04:40:12;;;;;;;33.17;7.20;;;10.20;99.90;;;;;;5013370;28;20057;-45
2023/05/08 04:42:41;;;;;;;15.65;7.25;;;10.30;99.90;;;;;;5013336;28;20022;-55
2023/05/08 04:45:07;;;;;;;25.03;7.93;;;10.30;99.90;;;;;;5013540;28;20102;-54
2023/05/08 04:47:33;;;;;;;25.58;7.03;;;10.40;99.90;;;;;;5013275;28;20119;-56
2023/05/08 04:49:59;;;;;;;19.38;6.68;;;10.40;99.90;;;;;;5013744;28;20493;-57
2023/05/08 04:52:25;;;;;;;21.98;7.25;;;10.50;99.90;;;;;;5013249;28;20226;-48
2023/05/08 04:54:50;;;;;;;18.27;7.38;;;10.50;99.90;;;;;;5013551;28;20025;-45
2023/05/08 04:57:16;;;;;;;28.13;7.75;;;10.60;99.90;;;;;;5013329;28;20516;-43
2023/05/08 04:59:41;;;;;;;24.20;8.38;;;10.70;99.90;;;;;;5013123;28;20038;-51
2023/05/08 05:02:08;;;;;;;37.72;8.73;;;10.70;99.90;;;;;;5013146;28;20133;-45
2023/05/08 05:04:35;;;;;;;19.10;7.53;;;10.80;99.90;;;;;;5012933;28;20092;-54
2023/05/08 05:07:04;;;;;;;23.55;8.20;;;10.90;99.90;;;;;;5013416;28;20109;-57
2023/05/08 05:09:29;;;;;;;20.17;8.38;;;11.00;99.90;;;;;;5012929;28;20071;-46
2023/05/08 05:11:55;;;;;;;21.15;9.18;;;11.00;99.90;;;;;;5013162;28;20054;-49
2023/05/08 05:14:20;;;;;;;16.75;8.20;;;11.10;99.90;;;;;;5013184;28;20025;-51
2023/05/08 05:16:46;;;;;;;58.15;9.93;;;11.20;99.90;;;;;;5012878;28;20049;-53
2023/05/08 05:19:12;;;;;;;26.25;9.48;;;11.30;99.90;;;;;;5013213;28;20030;-52
2023/05/08 05:21:38;;;;;;;23.33;9.80;;;11.40;99.90;;;;;;5008659;28;20088;-53
2023/05/08 05:24:05;;;;;;;21.95;9.32;;;11.50;99.90;;;;;;5012703;28;20037;-53
2023/05/08 05:26:30;;;;;;;27.15;10.48;;;11.50;99.90;;;;;;5012872;28;20025;-50
2023/05/08 05:28:56;;;;;;;25.17;10.05;;;11.60;99.90;;;;;;5012506;28;20036;-57
2023/05/08 05:31:22;;;;;;;25.58;10.30;;;11.70;99.90;;;;;;5012695;28;20030;-52
2023/05/08 05:33:48;;;;;;;23.67;11.27;;;11.80;99.90;;;;;;5012846;28;20083;-56
2023/05/08 05:36:13;;;;;;;27.80;12.30;;;11.80;99.90;;;;;;5012750;28;20030;-57
2023/05/08 05:38:39;;;;;;;22.33;10.60;;;11.90;99.90;;;;;;5012523;28;20397;-52
2023/05/08 05:41:04;;;;;;;26.38;11.32;;;12.00;99.90;;;;;;5012293;28;20037;-49
2023/05/08 05:43:31;;;;;;;24.10;11.43;;;12.00;99.90;;;;;;5012610;28;20029;-44
2023/05/08 05:46:03;;;;;;;21.63;10.70;;;12.00;99.90;;;;;;5012213;28;20069;-52
2023/05/08 05:48:29;;;;;;;27.13;12.27;;;12.10;99.90;;;;;;5012254;28;20037;-43
2023/05/08 05:50:55;;;;;;;23.55;11.68;;;12.10;99.90;;;;;;5012422;28;20022;-49
2023/05/08 05:53:20;;;;;;;21.77;11.32;;;12.20;99.90;;;;;;5012450;28;20080;-54
2023/05/08 05:55:46;;;;;;;19.30;10.05;;;12.20;99.90;;;;;;5012205;28;20473;-47
2023/05/08 05:58:11;;;;;;;20.13;10.85;;;12.20;99.90;;;;;;5010584;28;20014;-50
2023/05/08 06:00:37;;;;;;;20.25;10.75;;;12.20;99.90;;;;;;5012167;28;20469;-54
2023/05/08 06:03:03;;;;;;;18.58;9.85;;;12.20;99.90;;;;;;5012111;28;20049;-57
2023/05/08 06:05:29;;;;;;;16.58;8.43;;;12.40;99.90;;;;;;5012159;28;20022;-53
2023/05/08 06:07:54;;;;;;;14.85;9.43;;;12.40;99.90;;;;;;5011954;28;20052;-45
2023/05/08 06:10:20;;;;;;;17.08;9.27;;;12.50;99.90;;;;;;5012058;28;20030;-42
2023/05/08 06:12:46;;;;;;;15.93;8.73;;;12.50;99.90;;;;;;5011776;28;20104;-44
2023/05/08 06:15:13;;;;;;;13.70;9.43;;;12.60;99.90;;;;;;5011915;28;20076;-43
2023/05/08 06:17:39;;;;;;;15.45;8.48;;;12.60;99.90;;;;;;5011724;28;20380;-42
2023/05/08 06:20:05;;;;;;;14.65;9.73;;;12.70;99.90;;;;;;5011914;28;20021;-46
2023/05/08 06:22:31;;;;;;;16.70;9.65;;;12.70;99.90;;;;;;5011719;28;20397;-51
2023/05/08 06:24:57;;;;;;;18.42;10.60;;;12.80;99.90;;;;;;5011816;28;20022;-49
2023/05/08 06:27:23;;;;;;;16.63;9.93;;;12.80;99.90;;;;;;5011674;28;20086;-44
2023/05/08 06:29:51;;;;;;;20.45;11.85;;;12.80;99.90;;;;;;5010314;28;20026;-45
2023/05/08 06:32:20;;;;;;;16.30;10.20;;;12.80;99.90;;;;;;5011813;28;20037;-53
2023/05/08 06:34:46;;;;;;;17.90;10.37;;;12.80;99.90;;;;;;5010466;28;20084;-47
2023/05/08 06:37:11;;;;;;;18.27;11.40;;;12.80;99.90;;;;;;5011514;28;20120;-46
2023/05/08 06:39:37;;;;;;;19.27;11.00;;;12.90;99.90;;;;;;5011435;28;20042;-45
2023/05/08 06:42:05;;;;;;;17.52;10.38;;;13.00;99.90;;;;;;5011464;28;20041;-49
2023/05/08 06:44:31;;;;;;;14.63;9.60;;;13.10;99.90;;;;;;5011705;28;20018;-56
2023/05/08 06:46:57;;;;;;;17.88;9.32;;;13.10;99.90;;;;;;5026700;28;20483;-42
2023/05/08 06:49:22;;;;;;;18.40;9.90;;;13.30;99.90;;;;;;5011143;28;20591;-59
2023/05/08 06:51:48;;;;;;;13.70;8.95;;;13.40;99.90;;;;;;5011357;28;20022;-47
2023/05/08 06:54:14;;;;;;;16.92;8.93;;;13.40;99.90;;;;;;5011205;28;20543;-47
2023/05/08 06:56:40;;;;;;;14.63;8.32;;;13.50;99.90;;;;;;5011336;28;20048;-49
2023/05/08 06:59:05;;;;;;;15.80;6.78;;;13.60;99.90;;;;;;5011434;28;20033;-54
2023/05/08 07:01:31;;;;;;;12.98;7.57;;;13.80;99.90;;;;;;5011248;28;20014;-49
2023/05/08 07:03:57;;;;;;;15.25;7.70;;;13.80;99.90;;;;;;5011402;28;20033;-42
2023/05/08 07:06:22;;;;;;;15.65;8.15;;;13.90;99.90;;;;;;5011182;28;20632;-48
2023/05/08 07:08:48;;;;;;;15.15;7.25;;;13.90;99.90;;;;;;5010898;28;20484;-48
2023/05/08 07:11:14;;;;;;;13.82;8.13;;;14.00;99.90;;;;;;5010565;28;20018;-53
2023/05/08 07:13:42;;;;;;;14.98;8.13;;;14.30;99.90;;;;;;5011186;28;20037;-54
2023/05/08 07:16:11;;;;;;;12.80;6.65;;;14.70;99.90;;;;;;5026152;28;20025;-52
2023/05/08 07:18:37;;;;;;;13.98;7.40;;;15.20;99.90;;;;;;5011086;28;20100;-44
2023/05/08 07:21:03;;;;;;;14.63;7.10;;;15.90;99.90;;;;;;5008057;28;20022;-43
2023/05/08 07:23:28;;;;;;;8.35;5.13;;;16.60;99.90;;;;;;5010838;28;20026;-43
2023/05/08 07:25:54;;;;;;;7.75;3.70;;;17.30;99.90;;;;;;5011244;28;20451;-45
2023/05/08 07:28:20;;;;;;;9.68;3.22;;;17.70;99.90;;;;;;5011147;28;20081;-45
2023/05/08 07:30:46;;;;;;;11.05;2.85;;;17.80;99.90;;;;;;5010832;28;20042;-45
2023/05/08 07:33:11;;;;;;;5.80;2.45;;;17.90;99.90;;;;;;5011002;28;20060;-45
2023/05/08 07:35:40;;;;;;;10.32;3.10;;;18.00;99.90;;;;;;5010765;28;20026;-42
2023/05/08 07:38:06;;;;;;;7.13;2.65;;;18.40;99.90;;;;;;5010660;28;20516;-50
2023/05/08 07:40:32;;;;;;;8.80;3.20;;;18.70;99.90;;;;;;5010389;28;20080;-43
2023/05/08 07:42:57;;;;;;;8.43;2.58;;;18.90;99.90;;;;;;5010657;28;20041;-43
2023/05/08 07:45:23;;;;;;;6.95;2.67;;;19.00;99.90;;;;;;5011075;28;20037;-53
2023/05/08 07:47:54;;;;;;;7.13;2.53;;;18.70;99.90;;;;;;5010636;28;20420;-43
2023/05/08 07:50:21;;;;;;;7.95;2.20;;;18.40;99.90;;;;;;5010670;28;20037;-47
2023/05/08 07:52:47;;;;;;;9.80;2.92;;;18.00;99.90;;;;;;5010528;28;20033;-43
2023/05/08 07:55:13;;;;;;;10.88;2.95;;;17.50;99.90;;;;;;5010700;28;20034;-43
2023/05/08 07:57:40;;;;;;;7.93;2.80;;;17.20;99.90;;;;;;5010679;28;20025;-43
2023/05/08 08:00:14;;;;;;;8.30;3.30;;;17.00;99.90;;;;;;5010714;28;20069;-43
2023/05/08 08:02:41;;;;;;;7.53;3.10;;;17.00;99.90;;;;;;5010408;28;20704;-43
2023/05/08 08:05:07;;;;;;;7.95;2.80;;;17.10;99.90;;;;;;5010225;28;20110;-51
2023/05/08 08:07:34;;;;;;;7.60;2.67;;;17.20;99.90;;;;;;5006313;28;20113;-44
2023/05/08 08:10:00;;;;;;;9.30;2.78;;;17.40;99.90;;;;;;5000980;28;20555;-44
2023/05/08 08:12:26;;;;;;;6.85;2.45;;;17.50;99.90;;;;;;5006388;28;20113;-44
2023/05/08 08:14:52;;;;;;;9.85;2.55;;;17.60;99.90;;;;;;5003334;28;20026;-46
2023/05/08 08:17:17;;;;;;;9.23;2.30;;;17.70;99.90;;;;;;4990760;28;20050;-47
2023/05/08 08:19:43;;;;;;;7.22;2.40;;;17.80;99.90;;;;;;4990759;28;20022;-43
2023/05/08 08:22:09;;;;;;;6.32;2.10;;;17.70;99.90;;;;;;5010863;28;20392;-45
2023/05/08 08:24:34;;;;;;;7.35;2.30;;;17.70;99.90;;;;;;5014245;28;20122;-46
2023/05/08 08:27:01;;;;;;;8.77;2.13;;;17.60;99.90;;;;;;5011618;28;20436;-46
2023/05/08 08:29:27;;;;;;;7.13;1.80;;;17.60;99.90;;;;;;4994278;28;20046;-45
2023/05/08 08:31:52;;;;;;;8.23;2.15;;;17.70;99.90;;;;;;4994017;28;20084;-43
2023/05/08 08:34:18;;;;;;;6.57;1.73;;;18.00;99.90;;;;;;4994227;28;20109;-46
2023/05/08 08:36:44;;;;;;;8.13;2.03;;;18.20;99.90;;;;;;4993953;28;20522;-46
2023/05/08 08:39:09;;;;;;;7.10;1.95;;;18.10;99.90;;;;;;4993939;28;20053;-44
2023/05/08 08:41:35;;;;;;;6.95;2.10;;;18.20;99.90;;;;;;4994091;28;20053;-48
2023/05/08 08:44:00;;;;;;;9.02;1.67;;;18.00;99.90;;;;;;4993833;28;20097;-50
2023/05/08 08:46:27;;;;;;;6.20;1.80;;;17.90;99.90;;;;;;5005566;28;20040;-50
2023/05/08 08:48:55;;;;;;;6.78;1.70;;;17.80;99.90;;;;;;5009849;28;20018;-44
2023/05/08 08:51:31;;;;;;;7.18;1.92;;;17.70;99.90;;;;;;5006170;28;20109;-45
2023/05/08 08:54:10;;;;;;;8.98;2.20;;;17.40;99.90;;;;;;5012462;28;20026;-50
2023/05/08 08:56:38;;;;;;;7.82;1.80;;;17.30;99.90;;;;;;4993630;28;20041;-56
2023/05/08 08:59:05;;;;;;;9.48;2.05;;;17.50;99.90;;;;;;4989226;28;20031;-43
2023/05/08 09:01:37;;;;;;;7.95;1.70;;;17.40;99.90;;;;;;4980798;28;20018;-46
2023/05/08 09:04:04;;;;;;;6.63;1.85;;;17.50;99.90;;;;;;4993941;28;20034;-50
2023/05/08 09:06:30;;;;;;;7.78;2.00;;;17.50;99.90;;;;;;4993385;28;20524;-53
2023/05/08 09:08:56;;;;;;;7.43;2.20;;;17.40;99.90;;;;;;4997918;28;20046;-52
2023/05/08 09:11:23;;;;;;;4.93;2.03;;;17.50;99.90;;;;;;4994045;28;20022;-44
2023/05/08 09:13:49;;;;;;;7.47;1.75;;;17.40;99.90;;;;;;5003997;28;20057;-43
2023/05/08 09:16:15;;;;;;;7.60;1.50;;;17.30;99.90;;;;;;4993256;28;20412;-52
2023/05/08 09:18:41;;;;;;;10.93;2.10;;;17.10;99.90;;;;;;4991846;28;20026;-53
2023/05/08 09:21:06;;;;;;;6.78;1.80;;;16.80;99.90;;;;;;4993240;28;20019;-49
2023/05/08 09:23:34;;;;;;;5.97;1.83;;;16.70;99.90;;;;;;5006439;28;20040;-42
2023/05/08 09:26:00;;;;;;;8.13;1.92;;;16.70;99.90;;;;;;4993258;28;20023;-44
2023/05/08 09:28:26;;;;;;;6.70;2.08;;;16.70;99.90;;;;;;4999176;28;20108;-43
2023/05/08 09:30:54;;;;;;;9.23;1.80;;;16.70;99.90;;;;;;4991882;28;20041;-42
2023/05/08 09:33:21;;;;;;;7.10;1.73;;;16.60;99.90;;;;;;4992309;28;20036;-43
2023/05/08 09:35:47;;;;;;;7.28;1.98;;;16.50;99.90;;;;;;4993124;28;20110;-48
2023/05/08 09:38:34;;;;;;;7.65;1.77;;;16.50;99.90;;;;;;4992883;28;20045;-48
2023/05/08 09:41:14;;;;;;;5.25;1.63;;;16.40;99.90;;;;;;4992811;28;20026;-55
2023/05/08 09:43:40;;;;;;;11.40;2.00;;;16.50;99.90;;;;;;4991586;28;20444;-42
2023/05/08 09:46:33;;;;;;;5.70;1.70;;;16.40;99.90;;;;;;4992711;28;20022;-46
2023/05/08 09:49:01;;;;;;;9.02;2.03;;;16.20;99.90;;;;;;4990732;28;20034;-58
2023/05/08 09:51:29;;;;;;;7.22;2.10;;;16.20;99.90;;;;;;4992729;28;20035;-43
2023/05/08 09:53:57;;;;;;;7.95;1.77;;;16.10;99.90;;;;;;4992649;28;20023;-42
2023/05/08 09:56:38;;;;;;;8.80;2.10;;;16.20;99.90;;;;;;4992769;28;20358;-42
2023/05/08 09:59:20;;;;;;;11.60;2.33;;;16.30;99.90;;;;;;4986659;28;20022;-44
2023/05/08 10:01:47;;;;;;;8.50;1.95;;;16.40;99.90;;;;;;4992502;28;20030;-42
2023/05/08 10:04:13;;;;;;;5.57;1.83;;;16.30;99.90;;;;;;4992439;28;20025;-43
2023/05/08 10:06:39;;;;;;;7.72;1.65;;;16.30;99.90;;;;;;4992644;28;20023;-42
2023/05/08 10:09:10;;;;;;;7.90;2.20;;;16.30;99.90;;;;;;4992596;28;20080;-45
2023/05/08 10:11:36;;;;;;;8.43;2.00;;;16.20;99.90;;;;;;4992183;28;20577;-47
2023/05/08 10:14:02;;;;;;;7.03;1.60;;;16.20;99.90;;;;;;4992101;28;20477;-46
2023/05/08 10:16:40;;;;;;;4.97;1.80;;;16.30;99.90;;;;;;4992192;28;20084;-53
2023/05/08 10:19:15;;;;;;;8.60;1.90;;;16.40;99.90;;;;;;4991966;28;20105;-46
2023/05/08 10:21:45;;;;;;;9.48;2.05;;;16.50;99.90;;;;;;5005749;28;20481;-48
2023/05/08 10:24:16;;;;;;;5.95;1.90;;;16.50;99.90;;;;;;5011774;28;20484;-56
2023/05/08 10:26:51;;;;;;;7.05;2.05;;;16.40;99.90;;;;;;5011158;28;20026;-56
2023/05/08 10:29:23;;;;;;;7.38;2.00;;;16.20;99.90;;;;;;5005301;28;20044;-56
2023/05/08 10:31:55;;;;;;;6.45;2.03;;;16.00;99.90;;;;;;4990388;28;20129;-45
2023/05/08 10:34:22;;;;;;;6.25;2.20;;;16.00;99.90;;;;;;4989922;28;20037;-45
2023/05/08 10:36:51;;;;;;;8.18;2.05;;;16.10;99.90;;;;;;4988867;28;20031;-44
2023/05/08 10:39:17;;;;;;;11.15;2.10;;;16.10;99.90;;;;;;4989896;28;20108;-47
2023/05/08 10:41:44;;;;;;;6.43;1.98;;;16.20;99.90;;;;;;4991629;28;20014;-47
2023/05/08 10:44:10;;;;;;;7.60;2.00;;;16.30;99.90;;;;;;4986147;28;20030;-47
2023/05/08 10:47:01;;;;;;;7.88;2.30;;;16.30;99.90;;;;;;4991428;28;20026;-52
2023/05/08 10:49:48;;;;;;;5.50;2.03;;;16.50;99.90;;;;;;4991177;28;20069;-45
2023/05/08 10:52:37;;;;;;;8.18;2.13;;;16.60;99.90;;;;;;4991182;28;20018;-44
2023/05/08 10:55:12;;;;;;;10.00;2.22;;;17.00;99.90;;;;;;4980480;28;20026;-43
2023/05/08 10:57:37;;;;;;;7.72;1.95;;;17.20;99.90;;;;;;4990058;28;20026;-43
2023/05/08 11:00:03;;;;;;;6.07;2.00;;;17.30;99.90;;;;;;4991353;28;20031;-48
2023/05/08 11:02:31;;;;;;;6.78;2.17;;;17.20;99.90;;;;;;4991223;28;20097;-45
2023/05/08 11:05:16;;;;;;;8.65;2.35;;;17.20;99.90;;;;;;4988829;28;20042;-46
2023/05/08 11:08:00;;;;;;;9.57;2.00;;;17.40;99.90;;;;;;4991255;28;20018;-45
2023/05/08 11:10:36;;;;;;;8.73;2.30;;;17.60;99.90;;;;;;4991262;28;20066;-51
2023/05/08 11:13:03;;;;;;;7.55;2.10;;;17.50;99.90;;;;;;4991081;28;20030;-45
2023/05/08 11:15:39;;;;;;;7.65;1.90;;;17.50;99.90;;;;;;4991288;28;20030;-43
2023/05/08 11:18:15;;;;;;;7.30;1.90;;;17.40;99.90;;;;;;4988604;28;20387;-51
2023/05/08 11:20:53;;;;;;;6.78;1.67;;;17.50;99.90;;;;;;4984446;28;20025;-52
2023/05/08 11:23:29;;;;;;;7.18;1.70;;;17.40;99.90;;;;;;4991731;28;20018;-45
2023/05/08 11:26:03;;;;;;;5.63;1.90;;;17.40;99.90;;;;;;4993047;28;20032;-47
2023/05/08 11:28:36;;;;;;;7.03;1.77;;;17.30;99.90;;;;;;4997068;28;20062;-45
2023/05/08 11:31:03;;;;;;;6.00;1.75;;;17.50;99.90;;;;;;4988004;28;20029;-53
2023/05/08 11:33:39;;;;;;;6.35;2.05;;;17.60;99.90;;;;;;4996419;28;20035;-44
2023/05/08 11:36:17;;;;;;;5.75;2.17;;;17.50;99.90;;;;;;4987407;28;20057;-49
2023/05/08 11:39:03;;;;;;;4.93;1.80;;;17.20;99.90;;;;;;4989090;28;20101;-49
2023/05/08 11:41:29;;;;;;;4.53;1.60;;;16.90;99.90;;;;;;4990432;28;20034;-54
2023/05/08 11:44:04;;;;;;;6.05;1.55;;;16.50;99.90;;;;;;4993871;28;20033;-57
2023/05/08 11:46:52;;;;;;;4.72;1.38;;;16.40;99.90;;;;;;4990777;28;20054;-55
2023/05/08 11:49:19;;;;;;;3.90;1.33;;;16.20;99.90;;;;;;4990545;28;20726;-47
2023/05/08 11:51:47;;;;;;;5.60;1.20;;;16.00;99.90;;;;;;4997671;28;20049;-53
2023/05/08 11:54:18;;;;;;;4.97;1.40;;;15.80;99.90;;;;;;4990341;28;20022;-53
2023/05/08 11:56:51;;;;;;;3.15;1.30;;;15.60;99.90;;;;;;4992796;28;20026;-46
2023/05/08 11:59:18;;;;;;;4.35;1.40;;;15.70;99.90;;;;;;4994403;28;20030;-48
2023/05/08 12:01:44;;;;;;;5.15;1.27;;;15.70;99.90;;;;;;4993078;28;20105;-47
2023/05/08 12:04:11;;;;;;;3.60;1.20;;;15.70;99.90;;;;;;4994451;28;20026;-44
2023/05/08 12:06:39;;;;;;;2.88;1.08;;;15.70;99.90;;;;;;4993831;28;20521;-52
2023/05/08 12:09:16;;;;;;;6.05;1.30;;;15.80;99.90;;;;;;4994242;28;20022;-50
2023/05/08 12:11:44;;;;;;;3.55;1.30;;;15.80;99.90;;;;;;4994150;28;20634;-51
2023/05/08 12:14:11;;;;;;;3.60;1.15;;;15.90;99.90;;;;;;4994499;28;20034;-45
2023/05/08 12:16:38;;;;;;;4.72;1.23;;;16.20;99.90;;;;;;4994131;28;20428;-52
2023/05/08 12:19:07;;;;;;;3.83;1.05;;;16.40;99.90;;;;;;4994243;28;20026;-54
2023/05/08 12:21:33;;;;;;;3.35;1.00;;;16.60;99.90;;;;;;5003490;28;20101;-41
2023/05/08 12:23:59;;;;;;;3.10;1.00;;;16.80;99.90;;;;;;4992162;28;20398;-58
2023/05/08 12:26:25;;;;;;;2.33;0.82;;;17.20;99.90;;;;;;4992890;28;20035;-44
2023/05/08 12:28:55;;;;;;;4.15;1.10;;;17.90;99.90;;;;;;4993850;28;20513;-57
2023/05/08 12:31:22;;;;;;;4.15;1.38;;;19.00;99.90;;;;;;4994183;28;20046;-50
2023/05/08 12:33:47;;;;;;;4.68;1.15;;;19.90;99.90;;;;;;4994038;28;20029;-50
2023/05/08 12:36:13;;;;;;;3.40;1.00;;;20.20;99.90;;;;;;4994050;28;20022;-60
2023/05/08 12:38:39;;;;;;;3.22;0.80;;;20.10;99.90;;;;;;4992753;28;20040;-48
2023/05/08 12:41:07;;;;;;;2.45;0.90;;;19.90;99.90;;;;;;4991434;28;20624;-42
2023/05/08 12:43:36;;;;;;;1.95;0.80;;;19.70;99.90;;;;;;5001512;28;20022;-44
2023/05/08 12:46:04;;;;;;;2.55;0.80;;;19.60;99.90;;;;;;5006023;28;20081;-44
2023/05/08 12:48:30;;;;;;;1.87;0.70;;;19.40;99.90;;;;;;4991665;28;20054;-43
2023/05/08 12:51:02;;;;;;;4.03;1.35;;;19.10;99.90;;;;;;4993379;28;20307;-46
2023/05/08 12:53:30;;;;;;;3.30;0.80;;;18.90;99.90;;;;;;4998426;28;20025;-43
2023/05/08 12:55:59;;;;;;;2.67;1.00;;;19.20;99.90;;;;;;4997660;28;20077;-42